Time;durP1;ratioP1;P1;durP2;ratioP2;P2;SDS_P1;SDS_P2;PMS_P1;PMS_P2;Temp;Humidity;BMP_temperature;BMP_pressure;BME280_temperature;BME280_humidity;BME280_pressure;Samples;Min_cycle;Max_cycle;Signal;HPM_P1;HPM_P2
2024/03/30 00:01:49;;;;;;;15.52;7.30;;;410.40;1996.80;;;;;;5052563;28;20413;-72
2024/03/30 00:04:14;;;;;;;17.73;7.22;;;410.50;1971.20;;;;;;5052216;28;20033;-71
2024/03/30 00:06:41;;;;;;;20.77;12.05;;;435.30;1945.60;;;;;;5052302;28;20017;-73
2024/03/30 00:09:07;;;;;;;22.42;13.80;;;435.30;1920.00;;;;;;5051891;28;20052;-73
2024/03/30 00:11:33;;;;;;;25.90;14.60;;;435.40;1920.00;;;;;;5052304;28;20056;-73
2024/03/30 00:13:59;;;;;;;17.95;10.45;;;435.50;1894.40;;;;;;5052176;28;20049;-73
2024/03/30 00:16:25;;;;;;;14.63;7.55;;;435.50;1894.40;;;;;;5052363;28;20017;-73
2024/03/30 00:18:53;;;;;;;9.82;4.35;;;435.60;1868.80;;;;;;5051065;28;20048;-74
2024/03/30 00:21:19;;;;;;;8.85;4.15;;;435.60;1894.40;;;;;;5052330;28;20434;-73
2024/03/30 00:23:45;;;;;;;12.15;4.35;;;435.60;1894.40;;;;;;5052157;28;20475;-72
2024/03/30 00:26:11;;;;;;;12.77;4.25;;;435.60;1894.40;;;;;;5051830;28;20028;-73
2024/03/30 00:28:37;;;;;;;7.35;3.88;;;435.60;1894.40;;;;;;5051710;28;20064;-73
2024/03/30 00:31:02;;;;;;;8.65;3.58;;;435.60;1894.40;;;;;;5052129;28;20021;-73
2024/03/30 00:33:28;;;;;;;11.68;3.53;;;435.50;1920.00;;;;;;5051846;28;20379;-74
2024/03/30 00:35:55;;;;;;;9.27;3.30;;;435.40;1920.00;;;;;;5051885;28;20096;-74
2024/03/30 00:38:22;;;;;;;6.88;3.47;;;435.30;1920.00;;;;;;5049054;28;20021;-73
2024/03/30 00:40:47;;;;;;;8.10;3.42;;;435.30;1920.00;;;;;;5051394;28;20075;-73
2024/03/30 00:43:13;;;;;;;6.55;3.47;;;435.30;1920.00;;;;;;5051830;28;20021;-72
2024/03/30 00:45:40;;;;;;;10.73;3.53;;;435.30;1894.40;;;;;;5050983;28;20406;-73
2024/03/30 00:48:07;;;;;;;7.60;4.00;;;435.30;1894.40;;;;;;5051634;28;20017;-73
2024/03/30 00:50:33;;;;;;;7.53;4.70;;;435.30;1894.40;;;;;;5051499;28;20064;-73
2024/03/30 00:52:59;;;;;;;9.15;4.80;;;435.50;1894.40;;;;;;5051243;28;20017;-74
2024/03/30 00:55:25;;;;;;;9.98;3.15;;;435.30;1920.00;;;;;;5051392;28;20473;-73
2024/03/30 00:57:51;;;;;;;11.75;3.85;;;435.30;1920.00;;;;;;5051280;28;20067;-74
2024/03/30 01:00:17;;;;;;;6.57;3.30;;;435.30;1920.00;;;;;;5050849;28;20029;-73
2024/03/30 01:02:44;;;;;;;7.72;3.10;;;435.20;1894.40;;;;;;5051564;28;20036;-71
2024/03/30 01:05:10;;;;;;;7.68;3.00;;;435.20;1894.40;;;;;;5051202;28;20021;-72
2024/03/30 01:07:37;;;;;;;7.47;3.33;;;435.20;1894.40;;;;;;5051528;28;20409;-73
2024/03/30 01:10:04;;;;;;;4.30;2.50;;;435.20;1894.40;;;;;;5048717;28;20021;-73
2024/03/30 01:12:31;;;;;;;8.82;3.17;;;435.20;1894.40;;;;;;5051315;28;20414;-74
2024/03/30 01:14:57;;;;;;;7.22;2.55;;;435.20;1894.40;;;;;;5051518;28;20033;-73
2024/03/30 01:17:24;;;;;;;7.88;2.72;;;435.20;1868.80;;;;;;5051634;28;20101;-74
2024/03/30 01:19:50;;;;;;;9.10;3.42;;;435.30;1868.80;;;;;;5051311;28;20556;-73
2024/03/30 01:22:16;;;;;;;10.30;4.55;;;435.30;1868.80;;;;;;5051556;28;20021;-73
2024/03/30 01:24:42;;;;;;;16.17;5.88;;;435.40;1843.20;;;;;;5051327;28;20033;-73
2024/03/30 01:27:21;;;;;;;9.20;5.53;;;435.40;1868.80;;;;;;5051553;28;20025;-73
2024/03/30 01:29:49;;;;;;;6.18;3.70;;;435.30;1894.40;;;;;;5050121;28;20914;-73
2024/03/30 01:32:15;;;;;;;7.35;3.40;;;435.30;1894.40;;;;;;5051558;28;20016;-73
2024/03/30 01:34:41;;;;;;;7.85;3.00;;;435.30;1868.80;;;;;;5050972;28;20025;-73
2024/03/30 01:37:07;;;;;;;6.20;4.20;;;435.30;1868.80;;;;;;5051516;28;20808;-73
2024/03/30 01:39:34;;;;;;;5.95;2.83;;;435.40;1843.20;;;;;;5050742;28;20485;-73
2024/03/30 01:42:00;;;;;;;6.18;3.42;;;435.50;1843.20;;;;;;5051354;28;20460;-73
2024/03/30 01:44:26;;;;;;;9.07;2.83;;;435.60;1817.60;;;;;;5050934;28;20040;-73
2024/03/30 01:46:52;;;;;;;7.50;2.70;;;435.60;1817.60;;;;;;5051171;28;20017;-73
2024/03/30 01:49:20;;;;;;;4.38;2.58;;;435.60;1817.60;;;;;;5050744;28;20082;-73
2024/03/30 01:51:48;;;;;;;5.57;2.22;;;435.70;1792.00;;;;;;5051138;28;20071;-73
2024/03/30 01:54:16;;;;;;;8.32;2.58;;;435.80;1792.00;;;;;;5050992;28;20029;-73
2024/03/30 01:56:43;;;;;;;12.50;7.30;;;435.80;1792.00;;;;;;5050687;28;20486;-73
2024/03/30 01:59:09;;;;;;;14.65;9.48;;;435.80;1843.20;;;;;;5050058;28;20024;-73
2024/03/30 02:01:40;;;;;;;14.07;7.55;;;435.40;1945.60;;;;;;5051058;28;20059;-73
2024/03/30 02:04:06;;;;;;;19.33;8.15;;;410.50;1971.20;;;;;;5050862;28;20412;-73
2024/03/30 02:06:32;;;;;;;14.63;8.07;;;410.20;1996.80;;;;;;5049713;28;20021;-73
2024/03/30 02:08:59;;;;;;;10.40;5.75;;;410.10;1996.80;;;;;;5050470;28;20033;-73
2024/03/30 02:11:25;;;;;;;8.68;5.22;;;410.00;1996.80;;;;;;5050541;28;20040;-74
2024/03/30 02:13:52;;;;;;;7.50;3.78;;;409.90;1971.20;;;;;;5050625;28;20025;-73
2024/03/30 02:16:19;;;;;;;9.30;3.05;;;410.00;1945.60;;;;;;5050451;28;20058;-73
2024/03/30 02:18:45;;;;;;;5.10;2.72;;;410.00;1920.00;;;;;;5050643;28;20021;-73
2024/03/30 02:21:11;;;;;;;8.85;2.58;;;410.20;1894.40;;;;;;5050366;28;20028;-73
2024/03/30 02:23:37;;;;;;;6.97;3.47;;;410.20;1894.40;;;;;;5050107;28;20054;-73
2024/03/30 02:26:03;;;;;;;6.45;3.22;;;410.30;1868.80;;;;;;5050262;28;20120;-73
2024/03/30 02:28:29;;;;;;;6.78;2.70;;;410.50;1843.20;;;;;;5050096;28;20183;-72
2024/03/30 02:30:56;;;;;;;5.10;2.65;;;435.20;1843.20;;;;;;5050308;28;20419;-74
2024/03/30 02:33:22;;;;;;;5.93;2.72;;;435.30;1817.60;;;;;;5050089;28;20099;-73
2024/03/30 02:35:51;;;;;;;4.80;1.90;;;435.50;1792.00;;;;;;5049870;28;20039;-72
2024/03/30 02:38:17;;;;;;;5.35;1.80;;;435.60;1766.40;;;;;;5049955;28;20120;-73
2024/03/30 02:40:55;;;;;;;8.15;2.40;;;435.80;1740.80;;;;;;5049596;28;20400;-72
2024/03/30 02:43:21;;;;;;;4.90;1.85;;;435.90;1715.20;;;;;;5049753;28;20460;-72
2024/03/30 02:45:48;;;;;;;11.18;2.35;;;436.00;1715.20;;;;;;5048401;28;20052;-73
2024/03/30 02:48:15;;;;;;;6.22;2.25;;;460.80;1740.80;;;;;;5049910;28;20021;-73
2024/03/30 02:50:41;;;;;;;5.30;2.13;;;460.80;1715.20;;;;;;5049779;28;20047;-74
2024/03/30 02:53:07;;;;;;;10.68;2.30;;;460.90;1715.20;;;;;;5049997;28;20427;-73
2024/03/30 02:55:32;;;;;;;4.30;2.15;;;461.00;1715.20;;;;;;5049548;28;20025;-72
2024/03/30 02:57:58;;;;;;;5.40;2.33;;;461.00;1689.60;;;;;;5049459;28;20434;-73
2024/03/30 03:00:24;;;;;;;5.35;2.40;;;461.00;1689.60;;;;;;5049620;28;20535;-73
2024/03/30 03:02:52;;;;;;;6.05;3.35;;;461.00;1689.60;;;;;;5049518;28;20027;-72
2024/03/30 03:05:17;;;;;;;6.20;2.97;;;460.90;1740.80;;;;;;5049713;28;20086;-73
2024/03/30 03:07:43;;;;;;;5.03;2.25;;;460.80;1740.80;;;;;;5049661;28;20029;-72
2024/03/30 03:10:09;;;;;;;10.25;3.15;;;460.80;1740.80;;;;;;5049299;28;20037;-72
2024/03/30 03:12:35;;;;;;;7.25;2.20;;;436.10;1715.20;;;;;;5049562;28;20033;-72
2024/03/30 03:15:04;;;;;;;6.53;2.67;;;436.10;1689.60;;;;;;5049441;28;20146;-72
2024/03/30 03:17:35;;;;;;;5.63;3.00;;;436.10;1715.20;;;;;;5049364;28;20041;-72
2024/03/30 03:20:05;;;;;;;9.27;3.13;;;436.00;1715.20;;;;;;5049363;28;20449;-73
2024/03/30 03:22:35;;;;;;;5.40;2.80;;;436.00;1689.60;;;;;;5049373;28;20027;-74
2024/03/30 03:25:02;;;;;;;7.28;3.20;;;436.10;1689.60;;;;;;5049289;28;20036;-72
2024/03/30 03:27:28;;;;;;;15.27;10.55;;;436.10;1689.60;;;;;;5049449;28;20760;-73
2024/03/30 03:29:54;;;;;;;7.15;3.40;;;436.00;1715.20;;;;;;5049231;28;20040;-73
2024/03/30 03:32:19;;;;;;;3.58;2.17;;;436.00;1715.20;;;;;;5049365;28;20025;-72
2024/03/30 03:34:45;;;;;;;8.38;2.33;;;435.90;1715.20;;;;;;5049366;28;20374;-72
2024/03/30 03:37:11;;;;;;;7.00;2.55;;;435.90;1689.60;;;;;;5049250;28;20025;-73
2024/03/30 03:39:37;;;;;;;5.40;2.08;;;435.90;1689.60;;;;;;5049240;28;20052;-72
2024/03/30 03:42:03;;;;;;;5.85;2.05;;;435.90;1689.60;;;;;;5049254;28;20025;-73
2024/03/30 03:44:29;;;;;;;7.75;2.60;;;435.90;1689.60;;;;;;5048882;28;20090;-73
2024/03/30 03:46:54;;;;;;;4.85;2.33;;;435.90;1689.60;;;;;;5049218;28;20029;-73
2024/03/30 03:49:20;;;;;;;6.43;3.15;;;435.90;1715.20;;;;;;5049288;28;20035;-71
2024/03/30 03:51:46;;;;;;;6.68;3.63;;;435.90;1740.80;;;;;;5049285;28;20423;-73
2024/03/30 03:54:12;;;;;;;7.50;3.03;;;435.70;1766.40;;;;;;5049196;28;20025;-72
2024/03/30 03:56:38;;;;;;;7.28;3.30;;;435.60;1740.80;;;;;;5048476;28;20125;-73
2024/03/30 03:59:04;;;;;;;7.43;2.53;;;435.60;1740.80;;;;;;5049112;28;20029;-73
2024/03/30 04:01:31;;;;;;;5.95;2.58;;;435.50;1740.80;;;;;;5048975;28;20013;-73
2024/03/30 04:03:56;;;;;;;11.98;2.38;;;435.40;1766.40;;;;;;5048917;28;20040;-73
2024/03/30 04:06:25;;;;;;;4.63;1.90;;;435.30;1766.40;;;;;;5049121;28;20075;-73
2024/03/30 04:08:51;;;;;;;5.00;2.22;;;435.30;1766.40;;;;;;5048567;28;20031;-73
2024/03/30 04:11:17;;;;;;;6.03;2.45;;;435.30;1766.40;;;;;;5048880;28;20029;-73
2024/03/30 04:13:43;;;;;;;4.85;2.20;;;435.40;1740.80;;;;;;5049053;28;20025;-72
2024/03/30 04:16:08;;;;;;;4.75;2.33;;;435.40;1740.80;;;;;;5049126;28;20444;-73
2024/03/30 04:18:36;;;;;;;3.25;1.77;;;435.50;1740.80;;;;;;5048868;28;20021;-73
2024/03/30 04:21:03;;;;;;;6.03;2.20;;;435.60;1715.20;;;;;;5050036;28;20021;-73
2024/03/30 04:23:31;;;;;;;8.10;3.05;;;435.60;1740.80;;;;;;5052390;28;20017;-73
2024/03/30 04:26:05;;;;;;;5.53;3.05;;;435.60;1740.80;;;;;;5052697;28;20028;-73
2024/03/30 04:28:32;;;;;;;7.05;2.80;;;435.60;1740.80;;;;;;5052200;28;20029;-72
2024/03/30 04:31:04;;;;;;;6.57;3.97;;;435.60;1715.20;;;;;;5052564;28;20087;-73
2024/03/30 04:33:29;;;;;;;6.07;2.63;;;435.60;1740.80;;;;;;5052170;28;20048;-74
2024/03/30 04:36:03;;;;;;;8.25;2.47;;;435.60;1740.80;;;;;;5052636;28;20048;-73
2024/03/30 04:38:30;;;;;;;4.07;1.90;;;435.60;1740.80;;;;;;5052217;28;20529;-73
2024/03/30 04:41:00;;;;;;;5.65;2.00;;;435.60;1715.20;;;;;;5052217;28;20450;-73
2024/03/30 04:43:27;;;;;;;5.15;2.10;;;435.60;1740.80;;;;;;5052024;28;20108;-73
2024/03/30 04:45:54;;;;;;;4.28;2.28;;;435.70;1715.20;;;;;;5052247;28;20048;-73
2024/03/30 04:48:20;;;;;;;6.07;2.03;;;435.70;1740.80;;;;;;5052059;28;20471;-73
2024/03/30 04:50:46;;;;;;;2.72;1.52;;;435.80;1715.20;;;;;;5052269;28;20028;-72
2024/03/30 04:53:21;;;;;;;5.57;2.25;;;435.80;1715.20;;;;;;5052062;28;20455;-73
2024/03/30 04:55:50;;;;;;;9.88;2.17;;;435.70;1766.40;;;;;;5051901;28;20064;-73
2024/03/30 04:58:18;;;;;;;5.50;2.28;;;435.70;1740.80;;;;;;5051981;28;20265;-73
2024/03/30 05:00:44;;;;;;;7.65;2.78;;;435.70;1766.40;;;;;;5052151;28;20027;-73
2024/03/30 05:03:10;;;;;;;4.18;1.95;;;435.60;1766.40;;;;;;5051884;28;20111;-73
2024/03/30 05:05:36;;;;;;;5.45;2.03;;;435.50;1792.00;;;;;;5051917;28;20398;-72
2024/03/30 05:08:02;;;;;;;4.50;2.53;;;435.40;1817.60;;;;;;5051906;28;20048;-73
2024/03/30 05:10:27;;;;;;;8.60;2.30;;;435.50;1817.60;;;;;;5051486;28;20040;-73
2024/03/30 05:12:53;;;;;;;5.18;2.40;;;435.50;1817.60;;;;;;5051668;28;20527;-72
2024/03/30 05:15:19;;;;;;;3.80;2.03;;;435.50;1817.60;;;;;;5051470;28;20021;-73
2024/03/30 05:17:45;;;;;;;6.18;3.00;;;435.70;1766.40;;;;;;5051724;28;20431;-73
2024/03/30 05:22:55;;;;;;;9.20;3.78;;;436.00;1715.20;;;;;;5051998;28;20434;-73
2024/03/30 05:25:21;;;;;;;11.23;5.80;;;436.10;1740.80;;;;;;5051294;28;20041;-73
2024/03/30 05:27:46;;;;;;;10.23;6.18;;;435.90;1792.00;;;;;;5051571;28;20046;-72
2024/03/30 05:30:14;;;;;;;10.73;5.50;;;435.60;1843.20;;;;;;5051553;28;20025;-74
2024/03/30 05:32:39;;;;;;;8.77;5.53;;;435.30;1868.80;;;;;;5049606;28;20532;-74
2024/03/30 05:35:06;;;;;;;11.05;5.80;;;435.20;1868.80;;;;;;5051494;28;20025;-73
2024/03/30 05:37:32;;;;;;;10.52;5.47;;;435.20;1843.20;;;;;;5051234;28;20017;-73
2024/03/30 05:39:57;;;;;;;12.32;6.40;;;435.40;1843.20;;;;;;5050840;28;20056;-73
2024/03/30 05:42:23;;;;;;;9.95;5.32;;;436.10;1792.00;;;;;;5051277;28;20065;-73
2024/03/30 05:44:50;;;;;;;14.90;6.70;;;461.40;1766.40;;;;;;5050767;28;20036;-73
2024/03/30 05:47:16;;;;;;;11.93;7.45;;;461.50;1766.40;;;;;;5051311;28;20017;-72
2024/03/30 05:49:42;;;;;;;10.02;5.53;;;461.70;1740.80;;;;;;5051067;28;20163;-73
2024/03/30 05:52:08;;;;;;;9.85;5.20;;;461.70;1740.80;;;;;;5051020;28;20036;-73
2024/03/30 05:54:34;;;;;;;6.50;4.03;;;487.00;1689.60;;;;;;5049683;28;20037;-73
2024/03/30 05:56:59;;;;;;;6.93;4.45;;;512.00;1638.40;;;;;;5050608;28;20020;-73
2024/03/30 05:59:25;;;;;;;7.25;4.85;;;512.50;1612.80;;;;;;5050774;28;20025;-73
2024/03/30 06:01:51;;;;;;;7.38;3.42;;;538.00;1587.20;;;;;;5050815;28;20033;-73
2024/03/30 06:04:17;;;;;;;6.53;3.50;;;537.70;1587.20;;;;;;5050595;28;20032;-74
2024/03/30 06:06:43;;;;;;;7.00;4.57;;;538.40;1561.60;;;;;;5051004;28;20021;-73
2024/03/30 06:09:09;;;;;;;8.50;3.92;;;564.00;1561.60;;;;;;5050392;28;20416;-74
2024/03/30 06:11:35;;;;;;;8.45;3.85;;;615.10;1433.60;;;;;;5050370;28;20157;-74
2024/03/30 06:14:01;;;;;;;15.98;11.45;;;691.20;1331.20;;;;;;5050193;28;20543;-74
2024/03/30 06:16:27;;;;;;;15.90;10.63;;;742.70;1280.00;;;;;;5050633;28;20100;-73
2024/03/30 06:18:53;;;;;;;17.90;11.90;;;768.80;1203.20;;;;;;5050490;28;20025;-76
2024/03/30 06:21:18;;;;;;;17.02;11.68;;;794.30;1177.60;;;;;;5050014;28;20427;-76
2024/03/30 06:23:44;;;;;;;16.52;10.80;;;844.90;1152.00;;;;;;5050398;28;20029;-76
2024/03/30 06:26:10;;;;;;;16.98;10.38;;;845.70;1126.40;;;;;;5050343;28;20051;-77
2024/03/30 06:28:36;;;;;;;11.35;9.30;;;871.10;1100.80;;;;;;5050288;28;20107;-76
2024/03/30 06:31:02;;;;;;;12.02;8.93;;;896.80;1049.60;;;;;;5050546;28;20116;-76
2024/03/30 06:33:29;;;;;;;11.30;7.32;;;921.70;1049.60;;;;;;5049775;28;20025;-77
2024/03/30 06:35:55;;;;;;;7.05;6.05;;;922.20;1024.00;;;;;;5050361;28;20075;-76
2024/03/30 06:38:21;;;;;;;6.75;5.60;;;922.40;998.40;;;;;;5049836;28;20025;-76
2024/03/30 06:43:44;;;;;;;13.30;11.95;;;972.80;998.40;;;;;;5049309;28;20043;-77
2024/03/30 06:46:11;;;;;;;24.63;13.57;;;998.40;972.80;;;;;;5049837;28;20113;-77
2024/03/30 06:48:37;;;;;;;16.75;12.30;;;999.10;947.20;;;;;;5049995;28;20052;-76
2024/03/30 06:51:03;;;;;;;17.33;12.00;;;1024.00;947.20;;;;;;5050114;28;20548;-76
2024/03/30 06:53:29;;;;;;;13.52;9.82;;;1024.70;947.20;;;;;;5049735;28;20036;-77
2024/03/30 06:55:55;;;;;;;12.32;8.38;;;1049.90;921.60;;;;;;5050150;28;20395;-77
2024/03/30 06:58:22;;;;;;;9.48;6.65;;;1050.30;896.00;;;;;;5049557;28;20125;-77
2024/03/30 07:00:48;;;;;;;8.80;7.90;;;1075.20;870.40;;;;;;5049991;28;20403;-78
2024/03/30 07:03:14;;;;;;;11.30;7.28;;;1075.60;870.40;;;;;;5049757;28;20021;-77
2024/03/30 07:05:41;;;;;;;9.75;8.02;;;1100.90;870.40;;;;;;5049491;28;20056;-76
2024/03/30 07:08:07;;;;;;;13.70;9.20;;;1076.10;844.80;;;;;;5049847;28;20103;-75
2024/03/30 07:10:33;;;;;;;9.07;8.18;;;1101.00;844.80;;;;;;5049708;28;20060;-76
2024/03/30 07:12:59;;;;;;;11.57;9.55;;;1101.10;844.80;;;;;;5049511;28;20029;-75
2024/03/30 07:15:25;;;;;;;19.63;9.93;;;1101.30;844.80;;;;;;5049677;28;20021;-76
2024/03/30 07:17:51;;;;;;;10.50;7.68;;;1101.60;844.80;;;;;;5049551;28;20423;-76
2024/03/30 07:20:17;;;;;;;9.85;8.85;;;1126.40;844.80;;;;;;5049544;28;20037;-75
2024/03/30 07:22:43;;;;;;;8.70;7.35;;;1126.50;844.80;;;;;;5049450;28;20071;-75
2024/03/30 07:25:09;;;;;;;14.25;8.88;;;1101.70;819.20;;;;;;5049507;28;20435;-75
2024/03/30 07:27:34;;;;;;;14.82;8.65;;;1126.60;819.20;;;;;;5049296;28;20111;-75
2024/03/30 07:30:02;;;;;;;12.48;8.43;;;1127.00;819.20;;;;;;5049410;28;20063;-76
2024/03/30 07:32:27;;;;;;;10.65;8.77;;;1101.70;819.20;;;;;;5049302;28;20548;-75
2024/03/30 07:34:53;;;;;;;12.75;9.07;;;1126.70;819.20;;;;;;5049351;28;20108;-76
2024/03/30 07:37:19;;;;;;;14.05;9.30;;;1126.50;844.80;;;;;;5049293;28;20422;-75
2024/03/30 07:39:45;;;;;;;17.00;10.48;;;1126.70;844.80;;;;;;5049186;28;20052;-75
2024/03/30 07:42:11;;;;;;;18.40;10.32;;;1126.70;870.40;;;;;;5049102;28;20071;-75
2024/03/30 07:44:38;;;;;;;17.17;8.55;;;1101.50;870.40;;;;;;5049324;28;20029;-75
2024/03/30 07:47:05;;;;;;;15.10;8.27;;;1101.20;844.80;;;;;;5049214;28;20021;-75
2024/03/30 07:49:32;;;;;;;12.30;8.10;;;1101.10;844.80;;;;;;5049015;28;20017;-75
2024/03/30 07:51:58;;;;;;;10.70;7.05;;;1101.00;870.40;;;;;;5049122;28;20033;-75
2024/03/30 07:54:24;;;;;;;10.88;6.85;;;1101.00;844.80;;;;;;5049172;28;20548;-75
2024/03/30 07:56:57;;;;;;;14.02;6.38;;;1075.90;819.20;;;;;;5051412;28;20017;-75
2024/03/30 07:59:23;;;;;;;9.30;6.88;;;1075.80;844.80;;;;;;5052776;28;20035;-75
2024/03/30 08:01:52;;;;;;;10.18;7.38;;;1100.80;870.40;;;;;;5052632;28;20032;-76
2024/03/30 08:04:19;;;;;;;14.88;7.95;;;1101.60;844.80;;;;;;5052063;28;20021;-75
2024/03/30 08:06:51;;;;;;;8.25;6.88;;;1126.50;844.80;;;;;;5052198;28;20119;-77
2024/03/30 08:09:18;;;;;;;10.98;7.15;;;1126.70;844.80;;;;;;5051862;28;20025;-75
2024/03/30 08:11:44;;;;;;;9.05;7.00;;;1126.70;844.80;;;;;;5052313;28;20098;-77
2024/03/30 08:14:11;;;;;;;9.73;6.55;;;1126.80;844.80;;;;;;5051763;28;20475;-76
2024/03/30 08:16:37;;;;;;;7.72;5.80;;;1126.90;844.80;;;;;;5052182;28;20041;-76
2024/03/30 08:19:04;;;;;;;12.75;7.47;;;1127.10;819.20;;;;;;5052018;28;20025;-76
2024/03/30 08:21:31;;;;;;;8.80;6.35;;;1152.10;819.20;;;;;;5052518;28;20470;-76
2024/03/30 08:23:57;;;;;;;9.85;5.90;;;1152.00;819.20;;;;;;5052053;28;20021;-76
2024/03/30 08:26:23;;;;;;;11.38;5.85;;;1126.80;819.20;;;;;;5052134;28;20020;-76
2024/03/30 08:28:49;;;;;;;6.15;5.55;;;1126.90;819.20;;;;;;5051739;28;20107;-76
2024/03/30 08:31:18;;;;;;;10.95;5.45;;;1127.00;793.60;;;;;;5052105;28;20082;-76
2024/03/30 08:33:44;;;;;;;6.75;5.57;;;1126.80;793.60;;;;;;5048941;28;20037;-76
2024/03/30 08:36:10;;;;;;;11.07;6.28;;;1101.40;819.20;;;;;;5051745;28;20017;-76
2024/03/30 08:38:36;;;;;;;6.65;4.95;;;1101.20;819.20;;;;;;5051716;28;20071;-76
2024/03/30 08:41:02;;;;;;;6.70;5.03;;;1100.90;819.20;;;;;;5051500;28;20131;-76
2024/03/30 08:43:28;;;;;;;8.07;6.10;;;1100.90;819.20;;;;;;5051652;28;20543;-73
2024/03/30 08:45:54;;;;;;;6.70;5.40;;;1101.10;819.20;;;;;;5051603;28;20405;-75
2024/03/30 08:48:20;;;;;;;6.00;5.15;;;1100.90;819.20;;;;;;5051551;28;20083;-76
2024/03/30 08:50:46;;;;;;;5.43;4.82;;;1075.90;819.20;;;;;;5052433;28;20021;-76
2024/03/30 08:53:13;;;;;;;6.80;4.72;;;1024.90;844.80;;;;;;5052187;28;20025;-76
2024/03/30 08:55:40;;;;;;;5.20;4.70;;;998.60;896.00;;;;;;5051948;28;20052;-75
2024/03/30 08:58:07;;;;;;;7.85;4.90;;;973.00;921.60;;;;;;5052050;28;20025;-75
2024/03/30 09:00:34;;;;;;;8.25;4.45;;;922.00;947.20;;;;;;5052061;28;20131;-75
2024/03/30 09:03:00;;;;;;;4.97;3.47;;;896.10;947.20;;;;;;5051846;28;20368;-73
2024/03/30 09:05:26;;;;;;;7.47;4.20;;;845.70;972.80;;;;;;5051483;28;20107;-77
2024/03/30 09:07:53;;;;;;;8.95;3.67;;;845.20;1049.60;;;;;;5049795;28;20013;-79
2024/03/30 09:10:21;;;;;;;8.35;4.13;;;819.90;1049.60;;;;;;5051348;28;20119;-76
2024/03/30 09:12:48;;;;;;;4.05;3.10;;;819.30;1075.20;;;;;;5051798;28;20043;-76
2024/03/30 09:15:13;;;;;;;5.57;3.05;;;794.10;1075.20;;;;;;5051755;28;20036;-74
2024/03/30 09:17:39;;;;;;;6.60;3.10;;;793.70;1100.80;;;;;;5049819;28;20364;-76
2024/03/30 09:20:06;;;;;;;6.28;3.30;;;768.70;1075.20;;;;;;5051818;28;20075;-76
2024/03/30 09:22:32;;;;;;;6.88;3.38;;;768.60;1075.20;;;;;;5051432;28;20021;-75
2024/03/30 09:25:01;;;;;;;5.60;3.03;;;768.60;1075.20;;;;;;5051606;28;20025;-76
2024/03/30 09:27:28;;;;;;;6.43;2.97;;;768.60;1075.20;;;;;;5051419;28;20101;-75
2024/03/30 09:29:54;;;;;;;7.05;3.20;;;768.40;1075.20;;;;;;5051506;28;20092;-77
2024/03/30 09:32:19;;;;;;;4.90;2.75;;;768.20;1100.80;;;;;;5051549;28;20017;-75
2024/03/30 09:34:45;;;;;;;5.82;2.72;;;768.10;1075.20;;;;;;5051436;28;20033;-75
2024/03/30 09:37:13;;;;;;;5.80;2.83;;;743.30;1100.80;;;;;;5051374;28;20375;-75
2024/03/30 09:39:39;;;;;;;4.13;2.38;;;743.00;1126.40;;;;;;5051106;28;20487;-76
2024/03/30 09:42:11;;;;;;;7.50;2.55;;;743.00;1126.40;;;;;;5050353;28;20021;-75
2024/03/30 09:44:37;;;;;;;7.13;2.90;;;743.00;1126.40;;;;;;5048819;28;20032;-75
2024/03/30 09:47:05;;;;;;;7.05;2.75;;;743.10;1177.60;;;;;;5050452;28;20051;-75
2024/03/30 09:49:33;;;;;;;6.00;2.90;;;743.00;1126.40;;;;;;5050236;28;20032;-76
2024/03/30 09:52:07;;;;;;;5.05;2.88;;;743.00;1126.40;;;;;;5050285;28;20032;-75
2024/03/30 09:54:34;;;;;;;7.22;2.80;;;742.60;1126.40;;;;;;5050501;28;20387;-77
2024/03/30 09:57:01;;;;;;;5.00;2.83;;;742.40;1177.60;;;;;;5050486;28;20013;-76
2024/03/30 09:59:28;;;;;;;5.57;2.05;;;742.60;1152.00;;;;;;5050916;28;20384;-78
2024/03/30 10:01:54;;;;;;;8.32;2.95;;;742.60;1152.00;;;;;;5050930;28;20017;-75
2024/03/30 10:04:20;;;;;;;6.32;2.70;;;742.50;1152.00;;;;;;5050616;28;20023;-75
2024/03/30 10:06:50;;;;;;;3.35;2.38;;;742.40;1126.40;;;;;;5050329;28;20059;-76
2024/03/30 10:09:19;;;;;;;5.70;3.22;;;742.40;1126.40;;;;;;5050760;28;20515;-77
2024/03/30 10:11:46;;;;;;;6.07;2.38;;;742.40;1126.40;;;;;;5050817;28;20037;-77
2024/03/30 10:14:18;;;;;;;5.13;2.40;;;717.70;1100.80;;;;;;5050199;28;20040;-75
2024/03/30 10:16:46;;;;;;;3.88;2.20;;;717.60;1100.80;;;;;;5050773;28;20087;-76
2024/03/30 10:19:15;;;;;;;4.93;2.30;;;717.60;1126.40;;;;;;5064784;28;20032;-78
2024/03/30 10:21:45;;;;;;;6.30;2.70;;;717.50;1100.80;;;;;;5050394;28;20035;-75
2024/03/30 10:24:12;;;;;;;4.82;2.58;;;717.50;1126.40;;;;;;5050377;28;20489;-76
2024/03/30 10:26:41;;;;;;;5.07;3.75;;;717.60;1126.40;;;;;;5050504;28;20049;-76
2024/03/30 10:29:09;;;;;;;3.15;2.30;;;717.60;1126.40;;;;;;5050433;28;20082;-75
2024/03/30 10:31:38;;;;;;;3.63;2.45;;;717.50;1100.80;;;;;;5049913;28;20024;-76
2024/03/30 10:34:04;;;;;;;5.35;2.30;;;717.60;1100.80;;;;;;5049949;28;20087;-78
2024/03/30 10:36:30;;;;;;;4.38;2.60;;;717.50;1100.80;;;;;;5050359;28;20020;-75
2024/03/30 10:38:56;;;;;;;5.75;3.28;;;717.50;1100.80;;;;;;5050037;28;20471;-75
2024/03/30 10:41:29;;;;;;;8.25;2.40;;;717.50;1126.40;;;;;;5050076;28;20471;-74
2024/03/30 10:43:57;;;;;;;7.88;2.53;;;717.50;1126.40;;;;;;5050031;28;20024;-75
2024/03/30 10:46:23;;;;;;;8.13;2.78;;;717.40;1100.80;;;;;;5050064;28;20067;-75
2024/03/30 10:48:52;;;;;;;5.53;3.30;;;717.50;1152.00;;;;;;5049752;28;20025;-79
2024/03/30 10:51:19;;;;;;;12.77;6.32;;;717.50;1126.40;;;;;;5050044;28;20017;-75
2024/03/30 10:53:45;;;;;;;7.93;2.80;;;717.50;1152.00;;;;;;5049972;28;20017;-75
2024/03/30 10:56:11;;;;;;;6.88;2.90;;;717.50;1126.40;;;;;;5049997;28;20025;-77
2024/03/30 10:58:40;;;;;;;5.45;2.97;;;717.60;1152.00;;;;;;5050001;28;20051;-75
2024/03/30 11:01:08;;;;;;;6.05;2.63;;;717.50;1152.00;;;;;;5050029;28;20029;-75
2024/03/30 11:03:35;;;;;;;4.93;2.58;;;717.40;1100.80;;;;;;5049739;28;20053;-75
2024/03/30 11:06:04;;;;;;;9.63;5.65;;;717.50;1100.80;;;;;;5049653;28;20075;-78
2024/03/30 11:08:30;;;;;;;62.78;29.42;;;717.50;1126.40;;;;;;5049215;28;20025;-74
2024/03/30 11:11:01;;;;;;;7.88;3.33;;;717.50;1100.80;;;;;;5049652;28;20025;-74
2024/03/30 11:13:27;;;;;;;9.43;5.68;;;717.50;1126.40;;;;;;5047922;28;20036;-75
2024/03/30 11:15:55;;;;;;;5.97;3.13;;;717.50;1126.40;;;;;;5049882;28;20040;-73
2024/03/30 11:18:37;;;;;;;5.43;2.28;;;717.70;1100.80;;;;;;5048616;28;20455;-74
2024/03/30 11:21:25;;;;;;;8.25;4.15;;;717.50;1075.20;;;;;;5049378;28;20032;-74
2024/03/30 11:23:56;;;;;;;8.43;4.45;;;717.50;1126.40;;;;;;5048219;28;20044;-73
2024/03/30 11:26:24;;;;;;;7.38;4.50;;;717.60;1126.40;;;;;;5048923;28;20467;-76
2024/03/30 11:29:03;;;;;;;4.82;3.13;;;717.70;1152.00;;;;;;5049015;28;20025;-71
2024/03/30 11:31:40;;;;;;;7.03;3.40;;;717.50;1126.40;;;;;;5049371;28;20089;-75
2024/03/30 11:34:35;;;;;;;13.63;6.88;;;717.40;1126.40;;;;;;5049096;28;20029;-72
2024/03/30 11:37:18;;;;;;;5.75;2.50;;;717.60;1126.40;;;;;;5049070;28;20075;-76
2024/03/30 11:40:04;;;;;;;4.65;2.90;;;717.40;1126.40;;;;;;5048113;28;20092;-72
2024/03/30 11:42:52;;;;;;;5.53;2.25;;;717.50;1177.60;;;;;;5048016;28;20082;-76
2024/03/30 11:45:26;;;;;;;5.35;2.17;;;717.50;1126.40;;;;;;5028925;28;20375;-73
2024/03/30 11:47:54;;;;;;;6.07;3.00;;;717.60;1126.40;;;;;;5028643;28;20033;-72
2024/03/30 11:50:20;;;;;;;4.28;2.05;;;717.70;1203.20;;;;;;5029090;28;20156;-74
2024/03/30 11:52:50;;;;;;;1.90;1.48;;;717.70;1100.80;;;;;;5028800;28;20490;-77
2024/03/30 11:55:31;;;;;;;3.45;1.80;;;717.70;1049.60;;;;;;5029069;28;20039;-78
2024/03/30 11:57:59;;;;;;;2.65;1.50;;;717.70;1049.60;;;;;;5029981;28;20095;-75
2024/03/30 12:00:28;;;;;;;3.40;1.70;;;742.40;1100.80;;;;;;5048228;28;20025;-76
2024/03/30 12:03:07;;;;;;;2.65;1.63;;;742.50;1075.20;;;;;;5047972;28;20010;-73
2024/03/30 12:05:33;;;;;;;2.05;1.63;;;742.40;1049.60;;;;;;5048006;28;20021;-72
2024/03/30 12:07:59;;;;;;;5.35;2.08;;;742.40;1049.60;;;;;;5048079;28;20039;-72
2024/03/30 12:10:28;;;;;;;2.53;1.52;;;742.50;1075.20;;;;;;5047859;28;20035;-73
2024/03/30 12:13:00;;;;;;;2.72;2.05;;;742.40;1049.60;;;;;;5047895;28;20044;-73
2024/03/30 12:15:27;;;;;;;3.78;2.00;;;742.40;1075.20;;;;;;5047412;28;20495;-74
2024/03/30 12:17:53;;;;;;;3.65;1.88;;;742.50;1100.80;;;;;;5048455;28;20033;-79
2024/03/30 12:20:19;;;;;;;3.90;1.80;;;742.40;1049.60;;;;;;5048385;28;20033;-76
2024/03/30 12:22:46;;;;;;;3.90;1.40;;;742.40;1100.80;;;;;;5047691;28;20025;-72